createdAt,value
2017-04-14T00:00:10.771Z,61.54
2017-04-14T00:00:51.276Z,61.54
2017-04-14T00:01:31.774Z,61.83
2017-04-14T00:02:12.344Z,62.11
2017-04-14T00:02:52.838Z,62.11
2017-04-14T00:03:33.363Z,61.92
2017-04-14T00:04:13.884Z,62.3
2017-04-14T00:04:54.441Z,62.21
2017-04-14T00:05:34.909Z,62.02
2017-04-14T00:06:15.429Z,62.11
2017-04-14T00:06:55.942Z,62.11
2017-04-14T00:07:36.437Z,62.02
2017-04-14T00:08:16.967Z,62.21
2017-04-14T00:08:57.476Z,62.02
2017-04-14T00:09:37.992Z,61.83
2017-04-14T00:10:18.480Z,62.02
2017-04-14T00:10:58.994Z,61.83
2017-04-14T00:11:39.514Z,61.73
2017-04-14T00:12:20.013Z,61.44
2017-04-14T00:13:00.530Z,62.4
2017-04-14T00:13:41.057Z,62.02
2017-04-14T00:14:21.570Z,62.21
2017-04-14T00:15:02.088Z,62.11
2017-04-14T00:15:42.611Z,62.02
2017-04-14T00:16:23.108Z,62.11
2017-04-14T00:17:03.628Z,62.11
2017-04-14T00:17:44.121Z,61.92
2017-04-14T00:18:24.673Z,61.73
2017-04-14T00:19:05.170Z,61.92
2017-04-14T00:19:45.683Z,61.83
2017-04-14T00:20:26.178Z,62.11
2017-04-14T00:21:06.682Z,62.68
2017-04-14T00:21:47.203Z,62.37
2017-04-14T00:22:27.715Z,62.08
2017-04-14T00:23:08.230Z,62.84
2017-04-14T00:23:48.750Z,62.75
2017-04-14T00:24:29.264Z,62.65
2017-04-14T00:25:09.784Z,62.46
2017-04-14T00:25:50.293Z,62.88
2017-04-14T00:26:30.823Z,62.4
2017-04-14T00:27:11.341Z,62.21
2017-04-14T00:27:51.847Z,62.3
2017-04-14T00:28:32.368Z,62.3
2017-04-14T00:29:12.877Z,62.3
2017-04-14T00:29:53.393Z,62.02
2017-04-14T00:30:33.910Z,62.02
2017-04-14T00:31:14.407Z,62.4
2017-04-14T00:31:54.927Z,62.02
2017-04-14T00:32:35.430Z,62.3
2017-04-14T00:33:15.962Z,62.21
2017-04-14T00:33:56.456Z,61.83
2017-04-14T00:34:36.971Z,61.92
2017-04-14T00:35:17.485Z,61.92
2017-04-14T00:35:57.991Z,61.73
2017-04-14T00:36:38.490Z,61.35
2017-04-14T00:37:19.039Z,61.25
2017-04-14T00:37:59.529Z,61.54
2017-04-14T00:38:40.046Z,61.25
2017-04-14T00:39:20.567Z,61.54
2017-04-14T00:40:01.088Z,60.87
2017-04-14T00:40:41.618Z,61.25
2017-04-14T00:41:22.135Z,61.44
2017-04-14T00:42:02.646Z,61.25
2017-04-14T00:42:43.159Z,61.16
2017-04-14T00:43:23.667Z,60.97
2017-04-14T00:44:04.175Z,61.35
2017-04-14T00:44:44.678Z,61.54
2017-04-14T00:45:25.200Z,61.73
2017-04-14T00:46:05.712Z,61.35
2017-04-14T00:46:46.218Z,61.35
2017-04-14T00:47:26.732Z,60.97
2017-04-14T00:48:07.252Z,61.16
2017-04-14T00:48:47.771Z,61.35
2017-04-14T00:49:28.305Z,61.25
2017-04-14T00:50:08.767Z,61.16
2017-04-14T00:50:49.270Z,61.25
2017-04-14T00:51:29.770Z,61.44
2017-04-14T00:52:10.288Z,61.35
2017-04-14T00:52:50.782Z,61.44
2017-04-14T00:53:31.330Z,61.63
2017-04-14T00:54:11.814Z,61.44
2017-04-14T00:54:52.297Z,61.73
2017-04-14T00:55:32.803Z,61.63
2017-04-14T00:56:13.323Z,61.92
2017-04-14T00:56:53.841Z,61.35
2017-04-14T00:57:34.356Z,61.83
2017-04-14T00:58:14.881Z,62.11
2017-04-14T00:58:55.393Z,62.02
2017-04-14T00:59:35.905Z,61.92
2017-04-14T01:00:16.435Z,62.11
2017-04-14T01:00:56.951Z,62.02
2017-04-14T01:01:37.457Z,62.02
2017-04-14T01:02:17.977Z,62.11
2017-04-14T01:02:58.474Z,62.3
2017-04-14T01:03:38.988Z,62.21
2017-04-14T01:04:19.533Z,62.68
2017-04-14T01:04:59.980Z,62.4
2017-04-14T01:05:40.486Z,62.11
2017-04-14T01:06:20.987Z,62.4
2017-04-14T01:07:01.501Z,62.21
2017-04-14T01:07:42.039Z,62.02
2017-04-14T01:08:22.545Z,62.02
2017-04-14T01:09:03.028Z,61.54
2017-04-14T01:09:43.542Z,61.73
2017-04-14T01:10:24.066Z,61.16
2017-04-14T01:11:04.561Z,61.35
2017-04-14T01:11:45.051Z,61.25
2017-04-14T01:12:25.552Z,60.78
2017-04-14T01:13:06.071Z,61.83
2017-04-14T01:13:46.557Z,61.54
2017-04-14T01:14:27.066Z,61.54
2017-04-14T01:15:07.576Z,61.16
2017-04-14T01:15:48.118Z,61.63
2017-04-14T01:16:28.632Z,61.73
2017-04-14T01:17:09.143Z,61.25
2017-04-14T01:17:49.673Z,61.63
2017-04-14T01:18:30.174Z,61.44
2017-04-14T01:19:10.666Z,61.25
2017-04-14T01:19:51.159Z,61.83
2017-04-14T01:20:31.723Z,62.02
2017-04-14T01:21:12.250Z,62.4
2017-04-14T01:21:52.761Z,62.49
2017-04-14T01:22:33.271Z,61.44
2017-04-14T01:23:13.793Z,61.63
2017-04-14T01:23:54.315Z,61.83
2017-04-14T01:24:34.796Z,61.83
2017-04-14T01:25:15.307Z,61.35
2017-04-14T01:25:55.821Z,61.16
2017-04-14T01:26:36.340Z,61.25
2017-04-14T01:27:16.843Z,61.35
2017-04-14T01:27:57.360Z,61.44
2017-04-14T01:28:37.876Z,61.73
2017-04-14T01:29:18.383Z,61.63
2017-04-14T01:29:58.877Z,61.35
2017-04-14T01:30:39.380Z,61.16
2017-04-14T01:31:19.903Z,61.54
2017-04-14T01:32:00.409Z,61.44
2017-04-14T01:32:40.924Z,61.44
2017-04-14T01:33:21.428Z,61.35
2017-04-14T01:34:01.959Z,61.35
2017-04-14T01:34:42.466Z,61.63
2017-04-14T01:35:22.995Z,61.54
2017-04-14T01:36:03.486Z,61.07
2017-04-14T01:36:43.985Z,60.68
2017-04-14T01:37:24.502Z,60.58
2017-04-14T01:38:05.008Z,60.58
2017-04-14T01:38:45.518Z,60.78
2017-04-14T01:39:26.019Z,61.07
2017-04-14T01:40:06.524Z,61.07
2017-04-14T01:40:47.049Z,60.68
2017-04-14T01:41:27.568Z,60.58
2017-04-14T01:42:08.084Z,60.24
2017-04-14T01:42:48.602Z,59.66
2017-04-14T01:43:29.102Z,59.95
2017-04-14T01:44:09.638Z,59.28
2017-04-14T01:44:50.120Z,59.66
2017-04-14T01:45:30.647Z,59.92
2017-04-14T01:46:11.163Z,59.95
2017-04-14T01:46:51.686Z,59.73
2017-04-14T01:47:32.188Z,59.85
2017-04-14T01:48:12.668Z,60.02
2017-04-14T01:48:53.140Z,60.02
2017-04-14T01:49:33.656Z,59.92
2017-04-14T01:50:14.186Z,59.82
2017-04-14T01:50:54.693Z,59.56
2017-04-14T01:51:35.206Z,59.38
2017-04-14T01:52:15.717Z,59.66
2017-04-14T01:52:56.216Z,59.19
2017-04-14T01:53:36.759Z,59.28
2017-04-14T01:54:17.247Z,59.09
2017-04-14T01:54:57.747Z,59.47
2017-04-14T01:55:38.263Z,59.63
2017-04-14T01:56:18.788Z,59.53
2017-04-14T01:56:59.296Z,59.53
2017-04-14T01:57:39.827Z,59.53
2017-04-14T01:58:20.331Z,59.16
2017-04-14T01:59:00.845Z,59.82
2017-04-14T01:59:41.338Z,59.63
2017-04-14T02:00:21.866Z,59.92
2017-04-14T02:01:02.370Z,59.82
2017-04-14T02:01:42.895Z,59.16
2017-04-14T02:02:23.419Z,59.53
2017-04-14T02:03:03.924Z,59.53
2017-04-14T02:03:44.437Z,59.56
2017-04-14T02:04:24.938Z,59.47
2017-04-14T02:05:05.447Z,59.09
2017-04-14T02:05:45.954Z,59.38
2017-04-14T02:06:26.479Z,58.9
2017-04-14T02:07:06.998Z,58.9
2017-04-14T02:07:47.519Z,58.8
2017-04-14T02:08:28.035Z,59.19
2017-04-14T02:09:08.533Z,58.7
2017-04-14T02:09:49.058Z,59.28
2017-04-14T02:10:29.570Z,58.99
2017-04-14T02:11:10.092Z,58.9
2017-04-14T02:11:50.596Z,58.8
2017-04-14T02:12:31.101Z,58.51
2017-04-14T02:13:11.612Z,58.8
2017-04-14T02:13:52.147Z,58.7
2017-04-14T02:14:32.626Z,58.8
2017-04-14T02:15:13.148Z,59.06
2017-04-14T02:15:53.679Z,58.87
2017-04-14T02:16:34.194Z,58.8
2017-04-14T02:17:14.702Z,59.09
2017-04-14T02:17:55.214Z,58.97
2017-04-14T02:18:35.731Z,58.77
2017-04-14T02:19:16.237Z,58.97
2017-04-14T02:19:56.746Z,58.87
2017-04-14T02:20:37.258Z,58.97
2017-04-14T02:21:17.780Z,58.99
2017-04-14T02:21:58.291Z,59.19
2017-04-14T02:22:38.806Z,58.9
2017-04-14T02:23:19.321Z,58.51
2017-04-14T02:23:59.845Z,58.99
2017-04-14T02:24:40.344Z,58.9
2017-04-14T02:25:20.862Z,58.8
2017-04-14T02:26:01.367Z,58.77
2017-04-14T02:26:41.885Z,58.97
2017-04-14T02:27:22.373Z,59.06
2017-04-14T02:28:02.879Z,59.06
2017-04-14T02:28:43.384Z,58.97
2017-04-14T02:29:23.889Z,59.44
2017-04-14T02:30:04.399Z,59.82
2017-04-14T02:30:44.929Z,59.53
2017-04-14T02:31:25.432Z,59.53
2017-04-14T02:32:05.937Z,59.34
2017-04-14T02:32:46.461Z,60.02
2017-04-14T02:33:26.967Z,59.73
2017-04-14T02:34:07.474Z,59.53
2017-04-14T02:34:47.991Z,59.82
2017-04-14T02:35:28.500Z,60.02
2017-04-14T02:36:09.031Z,59.44
2017-04-14T02:36:49.538Z,59.73
2017-04-14T02:37:30.039Z,59.63
2017-04-14T02:38:10.556Z,59.82
2017-04-14T02:38:51.117Z,59.63
2017-04-14T02:39:31.625Z,59.73
2017-04-14T02:40:12.130Z,59.73
2017-04-14T02:40:52.643Z,59.73
2017-04-14T02:41:33.157Z,59.82
2017-04-14T02:42:13.672Z,59.34
2017-04-14T02:42:54.175Z,59.63
2017-04-14T02:43:34.713Z,59.44
2017-04-14T02:44:15.276Z,59.34
2017-04-14T02:44:55.751Z,59.44
2017-04-14T02:45:36.275Z,59.92
2017-04-14T02:46:16.772Z,59.82
2017-04-14T02:46:57.273Z,59.82
2017-04-14T02:47:37.766Z,59.92
2017-04-14T02:48:18.277Z,60.02
2017-04-14T02:48:58.793Z,60.11
2017-04-14T02:49:39.301Z,59.92
2017-04-14T02:50:19.817Z,59.92
2017-04-14T02:51:00.322Z,60.21
2017-04-14T02:51:40.836Z,60.58
2017-04-14T02:52:21.358Z,60.87
2017-04-14T02:53:01.875Z,60.58
2017-04-14T02:53:42.410Z,60.68
2017-04-14T02:54:22.903Z,60.68
2017-04-14T02:55:03.418Z,60.21
2017-04-14T02:55:43.896Z,60.49
2017-04-14T02:56:24.408Z,60.58
2017-04-14T02:57:04.924Z,60.68
2017-04-14T02:57:45.432Z,60.49
2017-04-14T02:58:25.960Z,60.58
2017-04-14T02:59:06.495Z,60.68
2017-04-14T02:59:47.000Z,60.68
2017-04-14T03:00:27.512Z,60.39
2017-04-14T03:01:08.029Z,60.78
2017-04-14T03:01:48.530Z,60.97
2017-04-14T03:02:29.054Z,60.3
2017-04-14T03:03:09.584Z,60.49
2017-04-14T03:03:50.071Z,60.87
2017-04-14T03:04:30.574Z,60.78
2017-04-14T03:05:11.042Z,60.58
2017-04-14T03:05:51.548Z,60.68
2017-04-14T03:06:32.032Z,60.11
2017-04-14T03:07:12.491Z,60.68
2017-04-14T03:07:53.016Z,60.78
2017-04-14T03:08:33.488Z,60.49
2017-04-14T03:09:13.973Z,60.58
2017-04-14T03:11:11.633Z,59.63
2017-04-14T03:11:52.146Z,59.53
2017-04-14T03:12:32.655Z,59.63
2017-04-14T03:13:13.173Z,59.34
2017-04-14T03:13:53.696Z,59.92
2017-04-14T03:14:34.216Z,59.82
2017-04-14T03:15:14.727Z,59.44
2017-04-14T03:15:55.251Z,59.34
2017-04-14T03:16:35.736Z,59.63
2017-04-14T03:17:16.260Z,59.34
2017-04-14T03:17:56.758Z,59.34
2017-04-14T03:18:37.262Z,59.82
2017-04-14T03:19:17.754Z,59.82
2017-04-14T03:19:58.277Z,60.39
2017-04-14T03:20:38.788Z,60.21
2017-04-14T03:21:19.279Z,60.02
2017-04-14T03:21:59.776Z,59.82
2017-04-14T03:22:40.285Z,59.92
2017-04-14T03:23:20.814Z,59.92
2017-04-14T03:24:01.324Z,59.92
2017-04-14T03:24:41.840Z,59.92
2017-04-14T03:25:22.350Z,59.82
2017-04-14T03:26:02.852Z,60.39
2017-04-14T03:26:43.361Z,60.68
2017-04-14T03:27:23.874Z,60.58
2017-04-14T03:28:04.388Z,60.49
2017-04-14T03:28:44.899Z,60.11
2017-04-14T03:29:25.421Z,60.3
2017-04-14T03:30:05.918Z,60.39
2017-04-14T03:30:46.434Z,60.68
2017-04-14T03:31:26.944Z,60.78
2017-04-14T03:32:07.462Z,60.78
2017-04-14T03:32:47.959Z,60.97
2017-04-14T03:33:28.475Z,60.78
2017-04-14T03:34:09.023Z,60.58
2017-04-14T03:34:49.520Z,60.49
2017-04-14T03:35:30.032Z,60.58
2017-04-14T03:36:10.551Z,60.68
2017-04-14T03:36:51.086Z,60.78
2017-04-14T03:37:31.598Z,60.87
2017-04-14T03:38:12.112Z,60.68
2017-04-14T03:38:52.627Z,61.35
2017-04-14T03:39:33.138Z,61.44
2017-04-14T03:40:13.641Z,61.44
2017-04-14T03:40:54.166Z,61.35
2017-04-14T03:41:34.699Z,61.35
2017-04-14T03:42:15.197Z,60.97
2017-04-14T03:42:55.705Z,60.68
2017-04-14T03:43:36.221Z,60.3
2017-04-14T03:44:16.744Z,60.78
2017-04-14T03:44:57.239Z,60.78
2017-04-14T03:45:37.752Z,60.68
2017-04-14T03:46:18.267Z,60.39
2017-04-14T03:46:58.778Z,60.49
2017-04-14T03:47:39.291Z,61.35
2017-04-14T03:48:19.797Z,61.16
2017-04-14T03:49:00.328Z,61.07
2017-04-14T03:49:40.798Z,61.07
2017-04-14T03:50:21.309Z,60.97
2017-04-14T03:51:01.832Z,60.87
2017-04-14T03:52:59.489Z,61.16
2017-04-14T03:53:39.998Z,61.07
2017-04-14T03:54:20.523Z,61.25
2017-04-14T03:55:01.026Z,61.16
2017-04-14T03:55:41.531Z,61.16
2017-04-14T03:56:22.063Z,61.44
2017-04-14T03:57:02.577Z,61.07
2017-04-14T03:57:43.101Z,61.44
2017-04-14T03:58:23.618Z,61.07
2017-04-14T03:59:04.192Z,61.35
2017-04-14T03:59:44.698Z,61.07
2017-04-14T04:00:25.222Z,61.25
2017-04-14T04:01:05.699Z,61.16
2017-04-14T04:01:46.199Z,61.07
2017-04-14T04:02:26.726Z,61.44
2017-04-14T04:03:07.211Z,61.07
2017-04-14T04:03:47.727Z,61.25
2017-04-14T04:04:28.210Z,61.25
2017-04-14T04:05:08.717Z,61.16
2017-04-14T04:05:49.237Z,61.25
2017-04-14T04:06:29.741Z,61.16
2017-04-14T04:07:10.254Z,61.16
2017-04-14T04:07:50.766Z,61.35
2017-04-14T04:08:31.281Z,61.54
2017-04-14T04:09:11.758Z,61.54
2017-04-14T04:09:52.275Z,61.44
2017-04-14T04:10:32.744Z,61.54
2017-04-14T04:11:13.227Z,61.16
2017-04-14T04:11:53.740Z,61.63
2017-04-14T04:12:34.253Z,61.92
2017-04-14T04:13:14.770Z,61.73
2017-04-14T04:13:55.299Z,61.44
2017-04-14T04:14:35.809Z,61.35
2017-04-14T04:15:16.331Z,61.54
2017-04-14T04:15:56.818Z,61.07
2017-04-14T04:16:37.329Z,61.07
2017-04-14T04:17:17.849Z,61.35
2017-04-14T04:17:58.348Z,61.25
2017-04-14T04:18:38.883Z,61.16
2017-04-14T04:19:19.394Z,61.35
2017-04-14T04:19:59.907Z,60.68
2017-04-14T04:20:40.417Z,60.78
2017-04-14T04:21:20.933Z,60.39
2017-04-14T04:22:01.433Z,60.58
2017-04-14T04:22:41.943Z,60.87
2017-04-14T04:23:22.448Z,61.07
2017-04-14T04:24:02.954Z,61.16
2017-04-14T04:24:43.461Z,61.44
2017-04-14T04:25:23.960Z,61.16
2017-04-14T04:26:04.459Z,60.78
2017-04-14T04:26:44.974Z,60.87
2017-04-14T04:27:25.481Z,61.16
2017-04-14T04:28:05.969Z,60.87
2017-04-14T04:28:46.493Z,61.07
2017-04-14T04:29:27.003Z,61.25
2017-04-14T04:30:07.519Z,61.44
2017-04-14T04:30:48.025Z,61.16
2017-04-14T04:31:28.546Z,60.68
2017-04-14T04:32:09.042Z,60.87
2017-04-14T04:32:49.554Z,60.78
2017-04-14T04:33:30.063Z,60.58
2017-04-14T04:34:10.589Z,60.49
2017-04-14T04:34:51.115Z,60.58
2017-04-14T04:35:31.621Z,60.49
2017-04-14T04:36:12.118Z,60.68
2017-04-14T04:36:52.630Z,61.25
2017-04-14T04:37:33.145Z,61.35
2017-04-14T04:38:14.288Z,61.35
2017-04-14T04:38:54.817Z,60.58
2017-04-14T04:39:35.299Z,60.78
2017-04-14T04:40:15.814Z,60.58
2017-04-14T04:40:56.323Z,60.58
2017-04-14T04:41:36.839Z,60.3
2017-04-14T04:42:17.356Z,60.39
2017-04-14T04:42:57.866Z,59.92
2017-04-14T04:43:38.381Z,59.63
2017-04-14T04:44:18.902Z,59.53
2017-04-14T04:44:59.417Z,59.92
2017-04-14T04:45:39.913Z,59.92
2017-04-14T04:46:20.427Z,60.39
2017-04-14T04:47:00.926Z,60.39
2017-04-14T04:47:41.448Z,60.3
2017-04-14T04:48:21.959Z,60.3
2017-04-14T04:49:02.475Z,60.11
2017-04-14T04:49:42.983Z,60.39
2017-04-14T04:50:23.497Z,60.39
2017-04-14T04:51:04.008Z,60.39
2017-04-14T04:51:44.493Z,59.92
2017-04-14T04:52:25.025Z,60.11
2017-04-14T04:53:05.510Z,60.02
2017-04-14T04:53:46.016Z,59.63
2017-04-14T04:54:26.516Z,59.63
2017-04-14T04:55:07.034Z,59.34
2017-04-14T04:55:47.550Z,59.66
2017-04-14T04:56:28.041Z,59.19
2017-04-14T04:57:08.530Z,59.16
2017-04-14T04:57:49.051Z,60.02
2017-04-14T04:58:29.561Z,59.44
2017-04-14T04:59:10.074Z,59.53
2017-04-14T04:59:50.587Z,59.73
2017-04-14T05:00:31.127Z,59.85
2017-04-14T05:01:11.611Z,58.9
2017-04-14T05:01:52.120Z,59.28
2017-04-14T05:02:32.645Z,58.9
2017-04-14T05:03:13.149Z,58.9
2017-04-14T05:03:53.667Z,58.8
2017-04-14T05:04:34.176Z,59.09
2017-04-14T05:05:14.687Z,59.09
2017-04-14T05:05:55.220Z,58.99
2017-04-14T05:06:35.733Z,58.99
2017-04-14T05:07:16.268Z,58.61
2017-04-14T05:07:56.786Z,58.7
2017-04-14T05:08:37.292Z,58.51
2017-04-14T05:09:17.802Z,58.51
2017-04-14T05:09:58.297Z,58.8
2017-04-14T05:10:38.821Z,58.51
2017-04-14T05:11:19.319Z,58.99
2017-04-14T05:11:59.814Z,58.8
2017-04-14T05:12:40.337Z,59.28
2017-04-14T05:13:20.838Z,59.09
2017-04-14T05:14:01.334Z,58.99
2017-04-14T05:14:41.853Z,58.61
2017-04-14T05:15:23.042Z,58.51
2017-04-14T05:16:03.552Z,58.7
2017-04-14T05:16:44.019Z,58.51
2017-04-14T05:17:24.510Z,58.8
2017-04-14T05:18:05.001Z,58.61
2017-04-14T05:18:45.556Z,58.61
2017-04-14T05:19:26.076Z,58.61
2017-04-14T05:20:06.594Z,58.61
2017-04-14T05:20:47.069Z,58.99
2017-04-14T05:21:27.595Z,58.42
2017-04-14T05:22:08.062Z,58.51
2017-04-14T05:22:48.551Z,58.42
2017-04-14T05:23:29.065Z,58.42
2017-04-14T05:24:09.582Z,58.51
2017-04-14T05:24:50.087Z,58.61
2017-04-14T05:25:30.636Z,58.04
2017-04-14T05:26:11.081Z,57.65
2017-04-14T05:26:51.607Z,57.65
2017-04-14T05:27:32.136Z,58.23
2017-04-14T05:28:12.641Z,57.85
2017-04-14T05:28:53.154Z,58.14
2017-04-14T05:29:33.657Z,58.8
2017-04-14T05:30:14.170Z,58.51
2017-04-14T05:30:54.676Z,58.7
2017-04-14T05:31:35.209Z,58.7
2017-04-14T05:32:15.689Z,58.23
2017-04-14T05:32:56.226Z,58.51
2017-04-14T05:33:36.733Z,58.7
2017-04-14T05:34:17.240Z,58.61
2017-04-14T05:34:57.760Z,58.99
2017-04-14T05:35:38.261Z,58.9
2017-04-14T05:36:18.785Z,58.51
2017-04-14T05:36:59.306Z,58.61
2017-04-14T05:37:39.847Z,58.61
2017-04-14T05:38:20.365Z,57.94
2017-04-14T05:39:00.894Z,57.94
2017-04-14T05:39:41.447Z,57.65
2017-04-14T05:40:21.935Z,57.46
2017-04-14T05:41:02.474Z,57.94
2017-04-14T05:41:42.986Z,58.04
2017-04-14T05:42:23.514Z,58.61
2017-04-14T05:43:04.049Z,58.61
2017-04-14T05:43:44.541Z,57.94
2017-04-14T05:44:25.022Z,57.46
2017-04-14T05:45:05.529Z,57.65
2017-04-14T05:45:46.050Z,57.18
2017-04-14T05:46:26.563Z,57.56
2017-04-14T05:47:07.086Z,57.56
2017-04-14T05:47:47.584Z,57.65
2017-04-14T05:48:28.116Z,57.46
2017-04-14T05:49:08.630Z,57.65
2017-04-14T05:49:49.151Z,57.56
2017-04-14T05:50:29.647Z,57.56
2017-04-14T05:51:10.181Z,56.99
2017-04-14T05:51:50.670Z,56.99
2017-04-14T05:52:31.189Z,57.37
2017-04-14T05:53:11.744Z,57.5
2017-04-14T05:53:52.257Z,57.28
2017-04-14T05:54:32.774Z,57.21
2017-04-14T05:55:13.314Z,56.99
2017-04-14T05:55:53.826Z,57.31
2017-04-14T05:56:34.338Z,57.21
2017-04-14T05:57:14.833Z,57.02
2017-04-14T05:57:55.349Z,57.02
2017-04-14T05:58:35.876Z,57.37
2017-04-14T05:59:16.427Z,57.4
2017-04-14T05:59:56.932Z,57.31
2017-04-14T06:00:37.447Z,56.99
2017-04-14T06:01:17.958Z,57.56
2017-04-14T06:01:58.494Z,57.65
2017-04-14T06:02:38.973Z,57.37
2017-04-14T06:03:19.501Z,57.65
2017-04-14T06:04:00.007Z,57.28
2017-04-14T06:04:40.507Z,57.28
2017-04-14T06:05:21.017Z,57.65
2017-04-14T06:06:01.526Z,58.04
2017-04-14T06:06:42.046Z,57.75
2017-04-14T06:07:22.550Z,57.75
2017-04-14T06:08:03.056Z,57.94
2017-04-14T06:08:43.558Z,57.65
2017-04-14T06:09:24.081Z,58.04
2017-04-14T06:10:04.552Z,58.04
2017-04-14T06:10:45.063Z,58.51
2017-04-14T06:11:25.570Z,58.51
2017-04-14T06:12:06.071Z,58.7
2017-04-14T06:12:46.583Z,58.61
2017-04-14T06:13:27.071Z,58.14
2017-04-14T06:14:07.603Z,58.04
2017-04-14T06:14:48.139Z,58.14
2017-04-14T06:15:28.625Z,58.7
2017-04-14T06:16:09.136Z,58.61
2017-04-14T06:16:49.648Z,58.04
2017-04-14T06:17:30.179Z,57.75
2017-04-14T06:18:10.633Z,57.85
2017-04-14T06:18:51.156Z,58.04
2017-04-14T06:19:31.690Z,57.75
2017-04-14T06:20:12.179Z,57.94
2017-04-14T06:20:52.692Z,57.87
2017-04-14T06:21:33.208Z,57.94
2017-04-14T06:22:13.821Z,57.4
2017-04-14T06:22:54.294Z,57.65
2017-04-14T06:23:34.777Z,57.68
2017-04-14T06:24:15.300Z,57.59
2017-04-14T06:24:55.784Z,57.31
2017-04-14T06:25:36.263Z,57.59
2017-04-14T06:26:16.797Z,57.02
2017-04-14T06:26:57.300Z,57.02
2017-04-14T06:27:37.816Z,57.02
2017-04-14T06:28:18.297Z,57.02
2017-04-14T06:28:58.813Z,57.5
2017-04-14T06:29:39.354Z,57.4
2017-04-14T06:30:19.876Z,57.31
2017-04-14T06:31:00.428Z,57.59
2017-04-14T06:31:41.522Z,57.02
2017-04-14T06:32:22.016Z,57.21
2017-04-14T06:33:02.499Z,57.02
2017-04-14T06:33:43.842Z,57.4
2017-04-14T06:34:24.339Z,57.59
2017-04-14T06:35:04.846Z,57.31
2017-04-14T06:35:45.335Z,57.5
2017-04-14T06:36:25.858Z,57.11
2017-04-14T06:37:06.452Z,57.5
2017-04-14T06:38:53.946Z,57.5
2017-04-14T06:39:34.449Z,57.4
2017-04-14T06:40:15.015Z,57.31
2017-04-14T06:40:55.472Z,57.31
2017-04-14T06:41:35.981Z,57.02
2017-04-14T06:42:16.476Z,57.4
2017-04-14T06:42:57.003Z,57.68
2017-04-14T06:43:37.510Z,57.5
2017-04-14T06:44:18.018Z,57.78
2017-04-14T06:44:58.535Z,57.59
2017-04-14T06:45:39.043Z,57.68
2017-04-14T06:46:19.548Z,57.5
2017-04-14T06:47:00.087Z,57.5
2017-04-14T06:47:40.596Z,57.59
2017-04-14T06:48:21.115Z,57.5
2017-04-14T06:49:01.570Z,57.31
2017-04-14T06:49:42.055Z,57.4
2017-04-14T06:50:22.701Z,57.4
2017-04-14T06:51:03.028Z,57.21
2017-04-14T06:51:43.590Z,56.73
2017-04-14T06:52:24.015Z,56.92
2017-04-14T06:53:04.502Z,56.82
2017-04-14T06:53:45.019Z,57.31
2017-04-14T06:54:25.509Z,57.97
2017-04-14T06:55:06.041Z,57.5
2017-04-14T06:55:46.510Z,58.07
2017-04-14T06:56:27.015Z,58.16
2017-04-14T06:57:07.527Z,58.36
2017-04-14T06:57:48.037Z,59.02
2017-04-14T06:58:28.579Z,58.64
2017-04-14T06:59:09.042Z,58.93
2017-04-14T06:59:49.576Z,58.64
2017-04-14T07:00:30.069Z,58.93
2017-04-14T07:01:10.588Z,58.64
2017-04-14T07:01:51.103Z,58.64
2017-04-14T07:02:31.657Z,58.73
2017-04-14T07:03:12.170Z,58.54
2017-04-14T07:03:52.662Z,58.45
2017-04-14T07:04:33.342Z,58.73
2017-04-14T07:05:13.831Z,58.54
2017-04-14T07:05:54.337Z,58.93
2017-04-14T07:06:34.839Z,58.45
2017-04-14T07:07:15.346Z,57.87
2017-04-14T07:07:55.865Z,57.5
2017-04-14T07:08:36.361Z,57.59
2017-04-14T07:09:16.871Z,57.68
2017-04-14T07:09:57.394Z,57.02
2017-04-14T07:10:37.917Z,57.5
2017-04-14T07:11:18.423Z,57.5
2017-04-14T07:11:58.932Z,57.59
2017-04-14T07:12:39.449Z,57.02
2017-04-14T07:13:19.955Z,57.14
2017-04-14T07:14:00.482Z,56.95
2017-04-14T07:16:19.417Z,56.85
2017-04-14T07:16:59.940Z,56.85
2017-04-14T07:17:40.456Z,56.85
2017-04-14T07:18:21.021Z,56.85
2017-04-14T07:19:01.514Z,56.95
2017-04-14T07:19:42.039Z,56.57
2017-04-14T07:20:22.560Z,56.28
2017-04-14T07:21:03.095Z,56.57
2017-04-14T07:21:43.616Z,56.28
2017-04-14T07:22:24.098Z,56.21
2017-04-14T07:23:04.581Z,55.54
2017-04-14T07:23:45.084Z,55.83
2017-04-14T07:24:25.598Z,55.74
2017-04-14T07:25:06.085Z,55.93
2017-04-14T07:25:46.613Z,56.12
2017-04-14T07:26:27.077Z,55.52
2017-04-14T07:27:07.621Z,55.26
2017-04-14T07:27:48.232Z,55.42
2017-04-14T07:28:28.684Z,55.45
2017-04-14T07:29:09.208Z,55.74
2017-04-14T07:29:49.759Z,56.12
2017-04-14T07:30:30.274Z,55.8
2017-04-14T07:31:10.851Z,55.8
2017-04-14T07:31:51.365Z,55.8
2017-04-14T07:32:31.802Z,55.64
2017-04-14T07:33:12.307Z,55.83
2017-04-14T07:33:53.046Z,55.74
2017-04-14T07:34:33.591Z,55.83
2017-04-14T07:35:14.286Z,55.35
2017-04-14T07:35:54.803Z,55.93
2017-04-14T07:36:35.267Z,55.9
2017-04-14T07:37:15.782Z,56.12
2017-04-14T07:37:58.373Z,55.83
2017-04-14T07:38:41.269Z,55.93
2017-04-14T07:39:22.075Z,55.64
2017-04-14T07:40:02.588Z,55.74
2017-04-14T07:40:43.112Z,56.02
2017-04-14T07:41:23.642Z,56.12
2017-04-14T07:42:04.181Z,55.64
2017-04-14T07:42:44.625Z,55.64
2017-04-14T07:43:25.133Z,55.64
2017-04-14T07:44:05.663Z,55.64
2017-04-14T07:44:46.135Z,56.12
2017-04-14T07:45:26.642Z,56.12
2017-04-14T07:46:07.194Z,56.12
2017-04-14T07:46:47.681Z,55.83
2017-04-14T07:47:28.188Z,55.64
2017-04-14T07:48:08.674Z,55.74
2017-04-14T07:48:49.133Z,55.64
2017-04-14T07:49:29.737Z,55.45
2017-04-14T07:50:10.221Z,55.26
2017-04-14T07:50:50.812Z,55.45
2017-04-14T07:51:31.215Z,55.26
2017-04-14T07:52:11.738Z,55
2017-04-14T07:52:52.246Z,55.29
2017-04-14T07:53:32.711Z,55.35
2017-04-14T07:54:13.245Z,55.38
2017-04-14T07:54:53.755Z,54.8
2017-04-14T07:55:34.274Z,55.19
2017-04-14T07:56:14.761Z,55.19
2017-04-14T07:56:55.238Z,55.38
2017-04-14T07:57:35.722Z,54.61
2017-04-14T07:58:16.207Z,54.61
2017-04-14T07:58:56.712Z,54.52
2017-04-14T07:59:37.261Z,54.43
2017-04-14T08:00:17.690Z,54.14
2017-04-14T08:00:58.182Z,54.33
2017-04-14T08:01:38.735Z,54.04
2017-04-14T08:02:19.248Z,53.85
2017-04-14T08:02:59.775Z,53.56
2017-04-14T08:03:40.268Z,53.75
2017-04-14T08:04:20.757Z,54.14
2017-04-14T08:05:01.289Z,53.94
2017-04-14T08:05:41.704Z,54.23
2017-04-14T08:06:22.251Z,53.75
2017-04-14T08:07:02.725Z,53.66
2017-04-14T08:07:43.185Z,54.23
2017-04-14T08:08:23.679Z,53.94
2017-04-14T08:09:04.214Z,54.23
2017-04-14T08:09:44.668Z,53.94
2017-04-14T08:10:25.163Z,54.33
2017-04-14T08:11:05.676Z,53.66
2017-04-14T08:11:46.162Z,53.66
2017-04-14T08:12:26.657Z,54.33
2017-04-14T08:13:07.157Z,54.43
2017-04-14T08:13:47.631Z,53.94
2017-04-14T08:14:28.135Z,53.85
2017-04-14T08:15:08.662Z,53.56
2017-04-14T08:15:49.167Z,54.33
2017-04-14T08:16:29.672Z,54.23
2017-04-14T08:17:10.160Z,53.94
2017-04-14T08:17:50.625Z,54.04
2017-04-14T08:18:31.173Z,54.14
2017-04-14T08:19:11.663Z,54.02
2017-04-14T08:19:52.186Z,54.02
2017-04-14T08:20:32.708Z,54.88
2017-04-14T08:21:13.148Z,54.88
2017-04-14T08:21:53.689Z,55.16
2017-04-14T08:22:34.192Z,55.35
2017-04-14T08:23:14.698Z,55.35
2017-04-14T08:23:55.143Z,55.35
2017-04-14T08:24:35.863Z,55.16
2017-04-14T08:25:16.358Z,55.83
2017-04-14T08:25:56.868Z,55.93
2017-04-14T08:26:37.346Z,55.45
2017-04-14T08:27:17.845Z,55.16
2017-04-14T08:27:58.333Z,55.45
2017-04-14T08:28:38.844Z,55.26
2017-04-14T08:29:19.347Z,55.64
2017-04-14T08:29:59.825Z,55.35
2017-04-14T08:30:40.336Z,55.07
2017-04-14T08:31:20.782Z,54.97
2017-04-14T08:32:01.289Z,55.07
2017-04-14T08:32:41.797Z,55.35
2017-04-14T08:33:22.287Z,55.45
2017-04-14T08:34:02.776Z,55.16
2017-04-14T08:34:43.263Z,55.07
2017-04-14T08:35:23.815Z,55.35
2017-04-14T08:36:04.282Z,55.26
2017-04-14T08:36:44.783Z,55.54
2017-04-14T08:37:25.277Z,55.38
2017-04-14T08:38:05.774Z,55
2017-04-14T08:38:46.293Z,55.29
2017-04-14T08:39:26.782Z,54.71
2017-04-14T08:40:07.277Z,54.14
2017-04-14T08:40:47.744Z,54.14
2017-04-14T08:41:28.265Z,53.37
2017-04-14T08:42:08.788Z,52.8
2017-04-14T08:42:49.241Z,53.02
2017-04-14T08:43:29.767Z,52.92
2017-04-14T08:44:10.237Z,52.63
2017-04-14T08:44:50.721Z,53.02
2017-04-14T08:45:31.216Z,52.25
2017-04-14T08:46:11.670Z,52.06
2017-04-14T08:46:52.171Z,52.06
2017-04-14T08:47:32.697Z,51.48
2017-04-14T08:48:13.252Z,51.48
2017-04-14T08:48:53.729Z,51.58